sensor_id;sensor_type;location;lat;lon;timestamp;P1;durP1;ratioP1;P2;durP2;ratioP2
16137;SDS011;8174;43.550;5.206;2022-10-23T00:01:13;26.73;;;11.10;;
16137;SDS011;8174;43.550;5.206;2022-10-23T00:03:41;25.35;;;11.27;;
16137;SDS011;8174;43.550;5.206;2022-10-23T00:06:09;28.13;;;11.10;;
16137;SDS011;8174;43.550;5.206;2022-10-23T00:08:37;26.55;;;11.10;;
16137;SDS011;8174;43.550;5.206;2022-10-23T00:11:07;27.85;;;11.65;;
16137;SDS011;8174;43.550;5.206;2022-10-23T00:13:34;25.05;;;11.10;;
16137;SDS011;8174;43.550;5.206;2022-10-23T00:16:02;27.00;;;12.23;;
16137;SDS011;8174;43.550;5.206;2022-10-23T00:18:29;26.80;;;10.95;;
16137;SDS011;8174;43.550;5.206;2022-10-23T00:20:57;29.58;;;11.13;;
16137;SDS011;8174;43.550;5.206;2022-10-23T00:23:24;26.63;;;10.82;;
16137;SDS011;8174;43.550;5.206;2022-10-23T00:25:52;22.73;;;11.38;;
16137;SDS011;8174;43.550;5.206;2022-10-23T00:28:21;25.27;;;12.40;;
16137;SDS011;8174;43.550;5.206;2022-10-23T00:30:48;29.45;;;11.55;;
16137;SDS011;8174;43.550;5.206;2022-10-23T00:33:16;23.95;;;11.38;;
16137;SDS011;8174;43.550;5.206;2022-10-23T00:35:44;28.58;;;10.85;;
16137;SDS011;8174;43.550;5.206;2022-10-23T00:38:11;26.63;;;11.70;;
16137;SDS011;8174;43.550;5.206;2022-10-23T00:40:39;27.33;;;11.73;;
16137;SDS011;8174;43.550;5.206;2022-10-23T00:43:09;26.23;;;11.80;;
16137;SDS011;8174;43.550;5.206;2022-10-23T00:45:44;31.65;;;12.30;;
16137;SDS011;8174;43.550;5.206;2022-10-23T00:48:12;31.83;;;11.88;;
16137;SDS011;8174;43.550;5.206;2022-10-23T00:50:39;23.75;;;12.38;;
16137;SDS011;8174;43.550;5.206;2022-10-23T00:53:07;28.60;;;11.50;;
16137;SDS011;8174;43.550;5.206;2022-10-23T00:55:36;27.75;;;12.38;;
16137;SDS011;8174;43.550;5.206;2022-10-23T00:58:05;28.42;;;12.52;;
16137;SDS011;8174;43.550;5.206;2022-10-23T01:00:39;28.85;;;12.48;;
16137;SDS011;8174;43.550;5.206;2022-10-23T01:03:08;32.08;;;12.05;;
16137;SDS011;8174;43.550;5.206;2022-10-23T01:05:38;27.55;;;12.57;;
16137;SDS011;8174;43.550;5.206;2022-10-23T01:08:09;27.10;;;12.18;;
16137;SDS011;8174;43.550;5.206;2022-10-23T01:10:39;30.25;;;12.18;;
16137;SDS011;8174;43.550;5.206;2022-10-23T01:13:10;29.25;;;11.85;;
16137;SDS011;8174;43.550;5.206;2022-10-23T01:15:40;30.05;;;11.95;;
16137;SDS011;8174;43.550;5.206;2022-10-23T01:18:13;32.95;;;12.30;;
16137;SDS011;8174;43.550;5.206;2022-10-23T01:20:43;30.98;;;12.10;;
16137;SDS011;8174;43.550;5.206;2022-10-23T01:23:21;27.73;;;12.75;;
16137;SDS011;8174;43.550;5.206;2022-10-23T01:25:56;26.70;;;11.35;;
16137;SDS011;8174;43.550;5.206;2022-10-23T01:28:27;29.98;;;12.63;;
16137;SDS011;8174;43.550;5.206;2022-10-23T01:30:56;27.35;;;11.95;;
16137;SDS011;8174;43.550;5.206;2022-10-23T01:33:25;31.23;;;11.85;;
16137;SDS011;8174;43.550;5.206;2022-10-23T01:35:55;27.17;;;11.93;;
16137;SDS011;8174;43.550;5.206;2022-10-23T01:38:26;27.65;;;11.70;;
16137;SDS011;8174;43.550;5.206;2022-10-23T01:40:55;28.88;;;11.02;;
16137;SDS011;8174;43.550;5.206;2022-10-23T01:43:29;26.63;;;11.93;;
16137;SDS011;8174;43.550;5.206;2022-10-23T01:45:59;31.38;;;11.63;;
16137;SDS011;8174;43.550;5.206;2022-10-23T01:48:28;25.60;;;11.45;;
16137;SDS011;8174;43.550;5.206;2022-10-23T01:50:57;29.17;;;12.18;;
16137;SDS011;8174;43.550;5.206;2022-10-23T01:53:25;29.50;;;11.93;;
16137;SDS011;8174;43.550;5.206;2022-10-23T01:55:54;32.10;;;12.20;;
16137;SDS011;8174;43.550;5.206;2022-10-23T01:58:22;33.38;;;12.50;;
16137;SDS011;8174;43.550;5.206;2022-10-23T02:00:53;26.73;;;11.32;;
16137;SDS011;8174;43.550;5.206;2022-10-23T02:03:22;30.92;;;12.88;;
16137;SDS011;8174;43.550;5.206;2022-10-23T02:05:50;28.92;;;12.38;;
16137;SDS011;8174;43.550;5.206;2022-10-23T02:08:18;26.88;;;12.10;;
16137;SDS011;8174;43.550;5.206;2022-10-23T02:10:46;31.00;;;13.40;;
16137;SDS011;8174;43.550;5.206;2022-10-23T02:13:18;32.35;;;13.57;;
16137;SDS011;8174;43.550;5.206;2022-10-23T02:15:47;29.58;;;12.90;;
16137;SDS011;8174;43.550;5.206;2022-10-23T02:18:19;26.83;;;13.15;;
16137;SDS011;8174;43.550;5.206;2022-10-23T02:20:54;30.75;;;12.93;;
16137;SDS011;8174;43.550;5.206;2022-10-23T02:23:24;32.22;;;12.35;;
16137;SDS011;8174;43.550;5.206;2022-10-23T02:25:54;25.60;;;11.90;;
16137;SDS011;8174;43.550;5.206;2022-10-23T02:28:25;25.20;;;13.05;;
16137;SDS011;8174;43.550;5.206;2022-10-23T02:30:54;32.63;;;12.70;;
16137;SDS011;8174;43.550;5.206;2022-10-23T02:33:26;28.80;;;12.70;;
16137;SDS011;8174;43.550;5.206;2022-10-23T02:35:54;24.73;;;12.88;;
16137;SDS011;8174;43.550;5.206;2022-10-23T02:38:32;27.23;;;12.07;;
16137;SDS011;8174;43.550;5.206;2022-10-23T02:41:04;36.33;;;13.13;;
16137;SDS011;8174;43.550;5.206;2022-10-23T02:43:34;36.10;;;13.85;;
16137;SDS011;8174;43.550;5.206;2022-10-23T02:46:04;27.25;;;12.55;;
16137;SDS011;8174;43.550;5.206;2022-10-23T02:48:37;30.75;;;13.23;;
16137;SDS011;8174;43.550;5.206;2022-10-23T02:51:06;29.13;;;12.45;;
16137;SDS011;8174;43.550;5.206;2022-10-23T02:53:41;29.52;;;12.68;;
16137;SDS011;8174;43.550;5.206;2022-10-23T02:56:11;33.03;;;13.13;;
16137;SDS011;8174;43.550;5.206;2022-10-23T02:58:42;33.63;;;13.23;;
16137;SDS011;8174;43.550;5.206;2022-10-23T03:01:11;29.83;;;11.75;;
16137;SDS011;8174;43.550;5.206;2022-10-23T03:03:43;33.80;;;13.15;;
16137;SDS011;8174;43.550;5.206;2022-10-23T03:06:11;28.02;;;13.18;;
16137;SDS011;8174;43.550;5.206;2022-10-23T03:08:41;31.40;;;11.73;;
16137;SDS011;8174;43.550;5.206;2022-10-23T03:11:08;35.22;;;12.20;;
16137;SDS011;8174;43.550;5.206;2022-10-23T03:13:36;25.65;;;11.82;;
16137;SDS011;8174;43.550;5.206;2022-10-23T03:16:03;24.23;;;11.82;;
16137;SDS011;8174;43.550;5.206;2022-10-23T03:18:31;27.67;;;12.07;;
16137;SDS011;8174;43.550;5.206;2022-10-23T03:21:00;26.10;;;11.97;;
16137;SDS011;8174;43.550;5.206;2022-10-23T03:23:27;30.75;;;12.02;;
16137;SDS011;8174;43.550;5.206;2022-10-23T03:25:55;22.17;;;11.85;;
16137;SDS011;8174;43.550;5.206;2022-10-23T03:28:22;28.08;;;11.85;;
16137;SDS011;8174;43.550;5.206;2022-10-23T03:30:49;24.45;;;11.60;;
16137;SDS011;8174;43.550;5.206;2022-10-23T03:33:17;25.50;;;11.75;;
16137;SDS011;8174;43.550;5.206;2022-10-23T03:35:44;32.10;;;11.50;;
16137;SDS011;8174;43.550;5.206;2022-10-23T03:38:15;26.35;;;11.68;;
16137;SDS011;8174;43.550;5.206;2022-10-23T03:40:43;28.77;;;12.02;;
16137;SDS011;8174;43.550;5.206;2022-10-23T03:43:10;35.72;;;11.00;;
16137;SDS011;8174;43.550;5.206;2022-10-23T03:45:38;27.45;;;10.95;;
16137;SDS011;8174;43.550;5.206;2022-10-23T03:48:05;28.02;;;11.48;;
16137;SDS011;8174;43.550;5.206;2022-10-23T03:50:33;37.17;;;12.13;;
16137;SDS011;8174;43.550;5.206;2022-10-23T03:53:00;34.60;;;11.95;;
16137;SDS011;8174;43.550;5.206;2022-10-23T03:55:29;27.15;;;11.23;;
16137;SDS011;8174;43.550;5.206;2022-10-23T03:57:57;26.75;;;11.43;;
16137;SDS011;8174;43.550;5.206;2022-10-23T04:00:24;29.77;;;11.85;;
16137;SDS011;8174;43.550;5.206;2022-10-23T04:02:52;26.98;;;11.80;;
16137;SDS011;8174;43.550;5.206;2022-10-23T04:05:19;25.83;;;11.63;;
16137;SDS011;8174;43.550;5.206;2022-10-23T04:07:46;29.63;;;11.30;;
16137;SDS011;8174;43.550;5.206;2022-10-23T04:10:14;36.57;;;12.83;;
16137;SDS011;8174;43.550;5.206;2022-10-23T04:12:43;33.40;;;12.40;;
16137;SDS011;8174;43.550;5.206;2022-10-23T04:15:10;30.00;;;12.23;;
16137;SDS011;8174;43.550;5.206;2022-10-23T04:17:38;28.13;;;11.63;;
16137;SDS011;8174;43.550;5.206;2022-10-23T04:20:05;29.13;;;11.80;;
16137;SDS011;8174;43.550;5.206;2022-10-23T04:22:33;27.55;;;12.02;;
16137;SDS011;8174;43.550;5.206;2022-10-23T04:25:00;38.28;;;12.70;;
16137;SDS011;8174;43.550;5.206;2022-10-23T04:27:27;28.98;;;11.73;;
16137;SDS011;8174;43.550;5.206;2022-10-23T04:29:56;35.38;;;12.18;;
16137;SDS011;8174;43.550;5.206;2022-10-23T04:32:24;27.05;;;12.38;;
16137;SDS011;8174;43.550;5.206;2022-10-23T04:34:51;35.97;;;12.65;;
16137;SDS011;8174;43.550;5.206;2022-10-23T04:37:19;30.63;;;12.43;;
16137;SDS011;8174;43.550;5.206;2022-10-23T04:39:46;30.88;;;12.38;;
16137;SDS011;8174;43.550;5.206;2022-10-23T04:42:14;39.00;;;12.93;;
16137;SDS011;8174;43.550;5.206;2022-10-23T04:44:42;38.53;;;12.90;;
16137;SDS011;8174;43.550;5.206;2022-10-23T04:47:11;34.08;;;12.38;;
16137;SDS011;8174;43.550;5.206;2022-10-23T04:49:39;36.85;;;12.15;;
16137;SDS011;8174;43.550;5.206;2022-10-23T04:52:07;31.83;;;12.23;;
16137;SDS011;8174;43.550;5.206;2022-10-23T04:54:35;34.22;;;12.23;;
16137;SDS011;8174;43.550;5.206;2022-10-23T04:57:03;36.05;;;11.82;;
16137;SDS011;8174;43.550;5.206;2022-10-23T04:59:30;25.70;;;12.25;;
16137;SDS011;8174;43.550;5.206;2022-10-23T05:01:58;35.35;;;11.88;;
16137;SDS011;8174;43.550;5.206;2022-10-23T05:04:27;39.22;;;12.93;;
16137;SDS011;8174;43.550;5.206;2022-10-23T05:06:54;35.28;;;12.52;;
16137;SDS011;8174;43.550;5.206;2022-10-23T05:09:22;33.83;;;12.80;;
16137;SDS011;8174;43.550;5.206;2022-10-23T05:11:51;32.60;;;11.85;;
16137;SDS011;8174;43.550;5.206;2022-10-23T05:14:18;32.55;;;11.57;;
16137;SDS011;8174;43.550;5.206;2022-10-23T05:16:47;37.80;;;12.05;;
16137;SDS011;8174;43.550;5.206;2022-10-23T05:19:19;36.10;;;11.05;;
16137;SDS011;8174;43.550;5.206;2022-10-23T05:21:48;39.95;;;16.77;;
16137;SDS011;8174;43.550;5.206;2022-10-23T05:24:19;36.47;;;11.73;;
16137;SDS011;8174;43.550;5.206;2022-10-23T05:26:47;35.63;;;11.13;;
16137;SDS011;8174;43.550;5.206;2022-10-23T05:29:15;29.42;;;11.07;;
16137;SDS011;8174;43.550;5.206;2022-10-23T05:31:43;37.92;;;10.90;;
16137;SDS011;8174;43.550;5.206;2022-10-23T05:34:10;33.30;;;11.15;;
16137;SDS011;8174;43.550;5.206;2022-10-23T05:36:39;30.63;;;11.50;;
16137;SDS011;8174;43.550;5.206;2022-10-23T05:39:07;34.25;;;11.35;;
16137;SDS011;8174;43.550;5.206;2022-10-23T05:41:35;31.77;;;10.55;;
16137;SDS011;8174;43.550;5.206;2022-10-23T05:44:03;29.10;;;11.75;;
16137;SDS011;8174;43.550;5.206;2022-10-23T05:46:30;23.80;;;10.38;;
16137;SDS011;8174;43.550;5.206;2022-10-23T05:48:58;29.50;;;10.50;;
16137;SDS011;8174;43.550;5.206;2022-10-23T05:51:25;36.10;;;10.68;;
16137;SDS011;8174;43.550;5.206;2022-10-23T05:53:53;28.30;;;12.02;;
16137;SDS011;8174;43.550;5.206;2022-10-23T05:56:22;30.58;;;11.98;;
16137;SDS011;8174;43.550;5.206;2022-10-23T05:58:49;27.98;;;11.60;;
16137;SDS011;8174;43.550;5.206;2022-10-23T06:01:17;31.20;;;11.43;;
16137;SDS011;8174;43.550;5.206;2022-10-23T06:03:44;32.88;;;11.43;;
16137;SDS011;8174;43.550;5.206;2022-10-23T06:06:12;34.25;;;11.20;;
16137;SDS011;8174;43.550;5.206;2022-10-23T06:08:39;35.30;;;11.07;;
16137;SDS011;8174;43.550;5.206;2022-10-23T06:11:07;30.67;;;13.65;;
16137;SDS011;8174;43.550;5.206;2022-10-23T06:13:36;30.52;;;13.75;;
16137;SDS011;8174;43.550;5.206;2022-10-23T06:16:07;35.45;;;11.18;;
16137;SDS011;8174;43.550;5.206;2022-10-23T06:18:35;33.92;;;13.90;;
16137;SDS011;8174;43.550;5.206;2022-10-23T06:21:02;35.22;;;11.43;;
16137;SDS011;8174;43.550;5.206;2022-10-23T06:23:30;37.35;;;11.90;;
16137;SDS011;8174;43.550;5.206;2022-10-23T06:25:58;37.58;;;15.98;;
16137;SDS011;8174;43.550;5.206;2022-10-23T06:28:26;35.90;;;13.25;;
16137;SDS011;8174;43.550;5.206;2022-10-23T06:30:54;31.65;;;13.77;;
16137;SDS011;8174;43.550;5.206;2022-10-23T06:33:22;30.23;;;10.68;;
16137;SDS011;8174;43.550;5.206;2022-10-23T06:35:49;36.63;;;10.60;;
16137;SDS011;8174;43.550;5.206;2022-10-23T06:38:17;36.88;;;11.27;;
16137;SDS011;8174;43.550;5.206;2022-10-23T06:40:44;34.00;;;11.85;;
16137;SDS011;8174;43.550;5.206;2022-10-23T06:43:18;39.63;;;13.23;;
16137;SDS011;8174;43.550;5.206;2022-10-23T06:45:45;36.17;;;13.15;;
16137;SDS011;8174;43.550;5.206;2022-10-23T06:48:14;35.17;;;11.77;;
16137;SDS011;8174;43.550;5.206;2022-10-23T06:50:42;32.65;;;12.93;;
16137;SDS011;8174;43.550;5.206;2022-10-23T06:53:09;34.90;;;13.00;;
16137;SDS011;8174;43.550;5.206;2022-10-23T06:55:37;29.15;;;11.52;;
16137;SDS011;8174;43.550;5.206;2022-10-23T06:58:05;28.77;;;10.73;;
16137;SDS011;8174;43.550;5.206;2022-10-23T07:00:35;40.45;;;11.30;;
16137;SDS011;8174;43.550;5.206;2022-10-23T07:03:02;35.58;;;10.60;;
16137;SDS011;8174;43.550;5.206;2022-10-23T07:05:31;33.63;;;12.77;;
16137;SDS011;8174;43.550;5.206;2022-10-23T07:07:59;34.92;;;10.45;;
16137;SDS011;8174;43.550;5.206;2022-10-23T07:10:26;37.58;;;11.63;;
16137;SDS011;8174;43.550;5.206;2022-10-23T07:12:54;36.75;;;9.63;;
16137;SDS011;8174;43.550;5.206;2022-10-23T07:15:24;30.23;;;9.50;;
16137;SDS011;8174;43.550;5.206;2022-10-23T07:17:52;40.20;;;10.20;;
16137;SDS011;8174;43.550;5.206;2022-10-23T07:20:20;27.90;;;8.32;;
16137;SDS011;8174;43.550;5.206;2022-10-23T07:22:50;30.88;;;10.38;;
16137;SDS011;8174;43.550;5.206;2022-10-23T07:25:18;24.75;;;9.35;;
16137;SDS011;8174;43.550;5.206;2022-10-23T07:27:46;38.30;;;10.00;;
16137;SDS011;8174;43.550;5.206;2022-10-23T07:30:13;35.92;;;9.68;;
16137;SDS011;8174;43.550;5.206;2022-10-23T07:32:41;33.08;;;9.63;;
16137;SDS011;8174;43.550;5.206;2022-10-23T07:35:09;31.58;;;9.55;;
16137;SDS011;8174;43.550;5.206;2022-10-23T07:37:37;27.23;;;10.85;;
16137;SDS011;8174;43.550;5.206;2022-10-23T07:40:06;27.00;;;9.32;;
16137;SDS011;8174;43.550;5.206;2022-10-23T07:42:34;33.33;;;9.90;;
16137;SDS011;8174;43.550;5.206;2022-10-23T07:45:03;30.83;;;9.35;;
16137;SDS011;8174;43.550;5.206;2022-10-23T07:47:31;26.10;;;10.25;;
16137;SDS011;8174;43.550;5.206;2022-10-23T07:49:59;30.60;;;10.27;;
16137;SDS011;8174;43.550;5.206;2022-10-23T07:52:26;31.92;;;9.93;;
16137;SDS011;8174;43.550;5.206;2022-10-23T07:54:53;30.00;;;9.20;;
16137;SDS011;8174;43.550;5.206;2022-10-23T07:57:22;28.45;;;9.73;;
16137;SDS011;8174;43.550;5.206;2022-10-23T07:59:50;32.63;;;9.38;;
16137;SDS011;8174;43.550;5.206;2022-10-23T08:02:18;29.85;;;9.20;;
16137;SDS011;8174;43.550;5.206;2022-10-23T08:04:47;28.25;;;9.20;;
16137;SDS011;8174;43.550;5.206;2022-10-23T08:07:14;37.78;;;9.43;;
16137;SDS011;8174;43.550;5.206;2022-10-23T08:09:42;32.67;;;9.60;;
16137;SDS011;8174;43.550;5.206;2022-10-23T08:12:09;24.52;;;9.05;;
16137;SDS011;8174;43.550;5.206;2022-10-23T08:14:38;32.00;;;10.18;;
16137;SDS011;8174;43.550;5.206;2022-10-23T08:17:06;23.00;;;9.27;;
16137;SDS011;8174;43.550;5.206;2022-10-23T08:19:34;27.08;;;9.10;;
16137;SDS011;8174;43.550;5.206;2022-10-23T08:22:01;29.58;;;9.50;;
16137;SDS011;8174;43.550;5.206;2022-10-23T08:24:29;32.88;;;9.25;;
16137;SDS011;8174;43.550;5.206;2022-10-23T08:26:56;23.02;;;8.68;;
16137;SDS011;8174;43.550;5.206;2022-10-23T08:29:24;22.92;;;8.15;;
16137;SDS011;8174;43.550;5.206;2022-10-23T08:31:53;28.02;;;9.27;;
16137;SDS011;8174;43.550;5.206;2022-10-23T08:34:24;26.85;;;9.23;;
16137;SDS011;8174;43.550;5.206;2022-10-23T08:36:52;23.77;;;8.00;;
16137;SDS011;8174;43.550;5.206;2022-10-23T08:39:19;28.10;;;9.20;;
16137;SDS011;8174;43.550;5.206;2022-10-23T08:41:48;29.45;;;9.38;;
16137;SDS011;8174;43.550;5.206;2022-10-23T08:44:17;24.48;;;9.25;;
16137;SDS011;8174;43.550;5.206;2022-10-23T08:46:47;29.25;;;9.07;;
16137;SDS011;8174;43.550;5.206;2022-10-23T08:52:06;25.40;;;8.90;;
16137;SDS011;8174;43.550;5.206;2022-10-23T08:54:38;20.80;;;8.65;;
16137;SDS011;8174;43.550;5.206;2022-10-23T08:57:12;25.77;;;8.38;;
16137;SDS011;8174;43.550;5.206;2022-10-23T08:59:43;28.73;;;8.73;;
16137;SDS011;8174;43.550;5.206;2022-10-23T09:02:12;26.58;;;8.80;;
16137;SDS011;8174;43.550;5.206;2022-10-23T09:04:43;30.75;;;8.80;;
16137;SDS011;8174;43.550;5.206;2022-10-23T09:07:14;25.27;;;8.57;;
16137;SDS011;8174;43.550;5.206;2022-10-23T09:09:50;31.80;;;9.05;;
16137;SDS011;8174;43.550;5.206;2022-10-23T09:12:19;38.28;;;8.57;;
16137;SDS011;8174;43.550;5.206;2022-10-23T09:14:49;25.20;;;8.82;;
16137;SDS011;8174;43.550;5.206;2022-10-23T09:17:24;22.80;;;8.32;;
16137;SDS011;8174;43.550;5.206;2022-10-23T09:19:53;23.83;;;8.60;;
16137;SDS011;8174;43.550;5.206;2022-10-23T09:22:23;28.45;;;8.27;;
16137;SDS011;8174;43.550;5.206;2022-10-23T09:24:50;22.63;;;8.07;;
16137;SDS011;8174;43.550;5.206;2022-10-23T09:27:18;28.13;;;8.23;;
16137;SDS011;8174;43.550;5.206;2022-10-23T09:29:46;27.92;;;8.60;;
16137;SDS011;8174;43.550;5.206;2022-10-23T09:32:13;20.90;;;8.35;;
16137;SDS011;8174;43.550;5.206;2022-10-23T09:34:49;23.75;;;8.07;;
16137;SDS011;8174;43.550;5.206;2022-10-23T09:37:20;27.83;;;8.32;;
16137;SDS011;8174;43.550;5.206;2022-10-23T09:39:58;29.10;;;8.25;;
16137;SDS011;8174;43.550;5.206;2022-10-23T09:42:27;24.55;;;8.20;;
16137;SDS011;8174;43.550;5.206;2022-10-23T09:44:54;25.65;;;8.13;;
16137;SDS011;8174;43.550;5.206;2022-10-23T09:47:22;29.00;;;7.93;;
16137;SDS011;8174;43.550;5.206;2022-10-23T09:49:52;25.38;;;8.45;;
16137;SDS011;8174;43.550;5.206;2022-10-23T09:52:21;27.38;;;7.93;;
16137;SDS011;8174;43.550;5.206;2022-10-23T09:54:52;21.60;;;8.27;;
16137;SDS011;8174;43.550;5.206;2022-10-23T09:57:21;22.45;;;7.10;;
16137;SDS011;8174;43.550;5.206;2022-10-23T09:59:50;23.42;;;7.80;;
16137;SDS011;8174;43.550;5.206;2022-10-23T10:02:19;25.13;;;8.30;;
16137;SDS011;8174;43.550;5.206;2022-10-23T10:04:47;26.20;;;8.10;;
16137;SDS011;8174;43.550;5.206;2022-10-23T10:07:17;26.27;;;7.68;;
16137;SDS011;8174;43.550;5.206;2022-10-23T10:09:47;26.33;;;8.30;;
16137;SDS011;8174;43.550;5.206;2022-10-23T10:12:21;22.33;;;8.00;;
16137;SDS011;8174;43.550;5.206;2022-10-23T10:14:54;27.95;;;8.35;;
16137;SDS011;8174;43.550;5.206;2022-10-23T10:17:28;22.00;;;8.35;;
16137;SDS011;8174;43.550;5.206;2022-10-23T10:20:02;24.58;;;7.97;;
16137;SDS011;8174;43.550;5.206;2022-10-23T10:22:31;21.50;;;7.95;;
16137;SDS011;8174;43.550;5.206;2022-10-23T10:25:02;20.75;;;8.27;;
16137;SDS011;8174;43.550;5.206;2022-10-23T10:27:40;25.77;;;8.30;;
16137;SDS011;8174;43.550;5.206;2022-10-23T10:30:12;27.65;;;8.30;;
16137;SDS011;8174;43.550;5.206;2022-10-23T10:32:42;23.13;;;8.32;;
16137;SDS011;8174;43.550;5.206;2022-10-23T10:35:18;27.05;;;8.43;;
16137;SDS011;8174;43.550;5.206;2022-10-23T10:37:51;31.02;;;8.88;;
16137;SDS011;8174;43.550;5.206;2022-10-23T10:40:21;26.05;;;8.20;;
16137;SDS011;8174;43.550;5.206;2022-10-23T10:42:59;24.05;;;7.85;;
16137;SDS011;8174;43.550;5.206;2022-10-23T10:45:32;27.38;;;7.78;;
16137;SDS011;8174;43.550;5.206;2022-10-23T10:50:45;22.30;;;8.15;;
16137;SDS011;8174;43.550;5.206;2022-10-23T10:53:17;21.83;;;7.70;;
16137;SDS011;8174;43.550;5.206;2022-10-23T10:55:45;26.92;;;8.80;;
16137;SDS011;8174;43.550;5.206;2022-10-23T10:58:17;26.52;;;7.88;;
16137;SDS011;8174;43.550;5.206;2022-10-23T11:00:48;22.80;;;7.97;;
16137;SDS011;8174;43.550;5.206;2022-10-23T11:03:20;22.48;;;7.47;;
16137;SDS011;8174;43.550;5.206;2022-10-23T11:05:50;26.88;;;7.47;;
16137;SDS011;8174;43.550;5.206;2022-10-23T11:08:18;22.35;;;7.28;;
16137;SDS011;8174;43.550;5.206;2022-10-23T11:10:53;25.02;;;8.45;;
16137;SDS011;8174;43.550;5.206;2022-10-23T11:13:26;24.17;;;7.13;;
16137;SDS011;8174;43.550;5.206;2022-10-23T11:15:54;28.40;;;7.47;;
16137;SDS011;8174;43.550;5.206;2022-10-23T11:18:24;26.33;;;7.50;;
16137;SDS011;8174;43.550;5.206;2022-10-23T11:21:01;29.73;;;7.20;;
16137;SDS011;8174;43.550;5.206;2022-10-23T11:26:21;28.48;;;7.50;;
16137;SDS011;8174;43.550;5.206;2022-10-23T11:28:57;25.58;;;6.95;;
16137;SDS011;8174;43.550;5.206;2022-10-23T11:31:32;23.05;;;6.53;;
16137;SDS011;8174;43.550;5.206;2022-10-23T11:34:15;22.02;;;6.97;;
16137;SDS011;8174;43.550;5.206;2022-10-23T11:36:47;25.42;;;7.38;;
16137;SDS011;8174;43.550;5.206;2022-10-23T11:39:17;25.27;;;6.80;;
16137;SDS011;8174;43.550;5.206;2022-10-23T11:41:46;22.33;;;6.85;;
16137;SDS011;8174;43.550;5.206;2022-10-23T11:44:23;27.77;;;7.22;;
16137;SDS011;8174;43.550;5.206;2022-10-23T11:46:59;23.50;;;7.43;;
16137;SDS011;8174;43.550;5.206;2022-10-23T11:49:26;28.25;;;7.00;;
16137;SDS011;8174;43.550;5.206;2022-10-23T11:54:28;29.85;;;6.60;;
16137;SDS011;8174;43.550;5.206;2022-10-23T11:57:04;22.25;;;7.10;;
16137;SDS011;8174;43.550;5.206;2022-10-23T11:59:39;23.92;;;7.38;;
16137;SDS011;8174;43.550;5.206;2022-10-23T12:02:18;25.00;;;7.32;;
16137;SDS011;8174;43.550;5.206;2022-10-23T12:04:48;19.65;;;6.28;;
16137;SDS011;8174;43.550;5.206;2022-10-23T12:07:19;27.35;;;6.95;;
16137;SDS011;8174;43.550;5.206;2022-10-23T12:09:50;23.25;;;7.00;;
16137;SDS011;8174;43.550;5.206;2022-10-23T12:12:29;21.58;;;6.50;;
16137;SDS011;8174;43.550;5.206;2022-10-23T12:15:08;27.20;;;6.80;;
16137;SDS011;8174;43.550;5.206;2022-10-23T12:17:35;21.63;;;6.70;;
16137;SDS011;8174;43.550;5.206;2022-10-23T12:25:50;29.75;;;7.20;;
16137;SDS011;8174;43.550;5.206;2022-10-23T12:28:23;22.50;;;6.13;;
16137;SDS011;8174;43.550;5.206;2022-10-23T12:30:59;31.02;;;6.63;;
16137;SDS011;8174;43.550;5.206;2022-10-23T12:33:31;24.73;;;6.85;;
16137;SDS011;8174;43.550;5.206;2022-10-23T12:36:04;25.35;;;6.88;;
16137;SDS011;8174;43.550;5.206;2022-10-23T12:38:38;27.70;;;6.95;;
16137;SDS011;8174;43.550;5.206;2022-10-23T12:41:10;32.83;;;6.90;;
16137;SDS011;8174;43.550;5.206;2022-10-23T12:43:39;22.60;;;6.55;;
16137;SDS011;8174;43.550;5.206;2022-10-23T12:46:17;25.30;;;6.72;;
16137;SDS011;8174;43.550;5.206;2022-10-23T12:48:48;26.02;;;6.68;;
16137;SDS011;8174;43.550;5.206;2022-10-23T12:51:19;22.13;;;6.53;;
16137;SDS011;8174;43.550;5.206;2022-10-23T12:53:48;20.95;;;6.30;;
16137;SDS011;8174;43.550;5.206;2022-10-23T12:56:16;21.17;;;6.68;;
16137;SDS011;8174;43.550;5.206;2022-10-23T12:58:44;20.13;;;6.65;;
16137;SDS011;8174;43.550;5.206;2022-10-23T13:01:22;28.42;;;6.82;;
16137;SDS011;8174;43.550;5.206;2022-10-23T13:03:50;26.20;;;7.35;;
16137;SDS011;8174;43.550;5.206;2022-10-23T13:06:18;27.08;;;7.25;;
16137;SDS011;8174;43.550;5.206;2022-10-23T13:08:47;26.30;;;7.00;;
16137;SDS011;8174;43.550;5.206;2022-10-23T13:11:15;25.25;;;6.55;;
16137;SDS011;8174;43.550;5.206;2022-10-23T13:13:44;21.80;;;6.93;;
16137;SDS011;8174;43.550;5.206;2022-10-23T13:16:13;23.85;;;6.95;;
16137;SDS011;8174;43.550;5.206;2022-10-23T13:18:42;23.88;;;6.55;;
16137;SDS011;8174;43.550;5.206;2022-10-23T13:21:14;27.48;;;6.90;;
16137;SDS011;8174;43.550;5.206;2022-10-23T13:23:42;32.78;;;7.57;;
16137;SDS011;8174;43.550;5.206;2022-10-23T13:29:01;20.00;;;6.72;;
16137;SDS011;8174;43.550;5.206;2022-10-23T13:31:30;30.65;;;8.35;;
16137;SDS011;8174;43.550;5.206;2022-10-23T13:34:13;25.90;;;7.10;;
16137;SDS011;8174;43.550;5.206;2022-10-23T13:36:48;22.63;;;6.63;;
16137;SDS011;8174;43.550;5.206;2022-10-23T13:39:20;26.40;;;6.03;;
16137;SDS011;8174;43.550;5.206;2022-10-23T13:41:48;29.20;;;7.20;;
16137;SDS011;8174;43.550;5.206;2022-10-23T13:44:16;28.98;;;7.05;;
16137;SDS011;8174;43.550;5.206;2022-10-23T13:46:44;26.95;;;5.95;;
16137;SDS011;8174;43.550;5.206;2022-10-23T13:49:14;36.45;;;6.80;;
16137;SDS011;8174;43.550;5.206;2022-10-23T13:51:42;25.38;;;6.07;;
16137;SDS011;8174;43.550;5.206;2022-10-23T13:54:13;23.27;;;5.80;;
16137;SDS011;8174;43.550;5.206;2022-10-23T13:56:41;27.88;;;6.28;;
16137;SDS011;8174;43.550;5.206;2022-10-23T13:59:08;31.48;;;6.28;;
16137;SDS011;8174;43.550;5.206;2022-10-23T14:01:36;23.92;;;5.80;;
16137;SDS011;8174;43.550;5.206;2022-10-23T14:04:04;30.27;;;6.22;;
16137;SDS011;8174;43.550;5.206;2022-10-23T14:06:33;24.50;;;6.63;;
16137;SDS011;8174;43.550;5.206;2022-10-23T14:09:02;23.75;;;6.40;;
16137;SDS011;8174;43.550;5.206;2022-10-23T14:11:30;22.55;;;5.82;;
16137;SDS011;8174;43.550;5.206;2022-10-23T14:13:58;26.63;;;6.25;;
16137;SDS011;8174;43.550;5.206;2022-10-23T14:16:25;28.02;;;6.18;;
16137;SDS011;8174;43.550;5.206;2022-10-23T14:18:53;26.60;;;6.65;;
16137;SDS011;8174;43.550;5.206;2022-10-23T14:21:21;25.13;;;6.00;;
16137;SDS011;8174;43.550;5.206;2022-10-23T14:23:50;27.13;;;6.60;;
16137;SDS011;8174;43.550;5.206;2022-10-23T14:26:19;31.63;;;7.38;;
16137;SDS011;8174;43.550;5.206;2022-10-23T14:28:50;30.20;;;6.15;;
16137;SDS011;8174;43.550;5.206;2022-10-23T14:31:17;30.98;;;6.03;;
16137;SDS011;8174;43.550;5.206;2022-10-23T14:33:45;34.13;;;7.10;;
16137;SDS011;8174;43.550;5.206;2022-10-23T14:36:16;31.40;;;7.00;;
16137;SDS011;8174;43.550;5.206;2022-10-23T14:38:44;23.13;;;6.57;;
16137;SDS011;8174;43.550;5.206;2022-10-23T14:41:13;23.20;;;6.25;;
16137;SDS011;8174;43.550;5.206;2022-10-23T14:43:41;34.38;;;10.85;;
16137;SDS011;8174;43.550;5.206;2022-10-23T14:46:10;28.48;;;6.97;;
16137;SDS011;8174;43.550;5.206;2022-10-23T14:48:37;24.27;;;7.00;;
16137;SDS011;8174;43.550;5.206;2022-10-23T14:51:06;28.75;;;6.65;;
16137;SDS011;8174;43.550;5.206;2022-10-23T14:53:33;29.58;;;6.40;;
16137;SDS011;8174;43.550;5.206;2022-10-23T14:56:01;21.52;;;6.05;;
16137;SDS011;8174;43.550;5.206;2022-10-23T14:58:30;19.90;;;6.10;;
16137;SDS011;8174;43.550;5.206;2022-10-23T15:00:57;28.85;;;6.50;;
16137;SDS011;8174;43.550;5.206;2022-10-23T15:03:25;26.95;;;6.25;;
16137;SDS011;8174;43.550;5.206;2022-10-23T15:05:52;29.25;;;6.57;;
16137;SDS011;8174;43.550;5.206;2022-10-23T15:08:20;28.40;;;6.70;;
16137;SDS011;8174;43.550;5.206;2022-10-23T15:10:48;31.48;;;7.53;;
16137;SDS011;8174;43.550;5.206;2022-10-23T15:13:15;34.05;;;6.38;;